IPL weather

Imperial County Airport
Imperial, California, United States

Public forecast

Using degrees Fahrenheit for public forecast. Weather courtesy of forecast.io.

METAR (pilot weather report)

Retrieved 2019/08/23 05:53 UTC (39 minutes ago):

KIPL 230553Z AUTO 04005KT 10SM CLR 34/03 A2962 RMK AO2 SLP029 T03390028 10433 20333 51019

TAF (pilot weather forecast)

Retrieved 2019/08/23 06:42 UTC (0 seconds ago):

TAF KIPL 230541Z 2306/2406 16005KT P6SM FEW250 FM231700 15008KT P6SM FEW250